sensor_id;sensor_type;location;lat;lon;timestamp;P1;durP1;ratioP1;P2;durP2;ratioP2
61685;SDS011;47592;45.904;8.978;2022-12-18T00:01:37;13.02;;;9.13;;
61685;SDS011;47592;45.904;8.978;2022-12-18T00:04:04;13.95;;;8.88;;
61685;SDS011;47592;45.904;8.978;2022-12-18T00:06:31;14.70;;;9.02;;
61685;SDS011;47592;45.904;8.978;2022-12-18T00:08:58;13.73;;;8.70;;
61685;SDS011;47592;45.904;8.978;2022-12-18T00:11:24;13.07;;;9.02;;
61685;SDS011;47592;45.904;8.978;2022-12-18T00:13:53;12.98;;;8.98;;
61685;SDS011;47592;45.904;8.978;2022-12-18T00:16:19;15.35;;;9.63;;
61685;SDS011;47592;45.904;8.978;2022-12-18T00:18:46;13.07;;;9.18;;
61685;SDS011;47592;45.904;8.978;2022-12-18T00:21:13;14.05;;;9.40;;
61685;SDS011;47592;45.904;8.978;2022-12-18T00:23:39;15.15;;;9.43;;
61685;SDS011;47592;45.904;8.978;2022-12-18T00:26:16;13.68;;;9.48;;
61685;SDS011;47592;45.904;8.978;2022-12-18T00:28:53;14.45;;;9.70;;
61685;SDS011;47592;45.904;8.978;2022-12-18T00:31:21;12.70;;;8.43;;
61685;SDS011;47592;45.904;8.978;2022-12-18T00:33:48;13.00;;;8.77;;
61685;SDS011;47592;45.904;8.978;2022-12-18T00:36:14;12.18;;;8.07;;
61685;SDS011;47592;45.904;8.978;2022-12-18T00:38:42;13.88;;;9.18;;
61685;SDS011;47592;45.904;8.978;2022-12-18T00:41:09;12.40;;;8.50;;
61685;SDS011;47592;45.904;8.978;2022-12-18T00:43:35;11.23;;;7.72;;
61685;SDS011;47592;45.904;8.978;2022-12-18T00:46:01;13.68;;;8.23;;
61685;SDS011;47592;45.904;8.978;2022-12-18T00:48:27;14.13;;;8.77;;
61685;SDS011;47592;45.904;8.978;2022-12-18T00:50:53;14.10;;;8.50;;
61685;SDS011;47592;45.904;8.978;2022-12-18T00:53:18;12.93;;;7.88;;
61685;SDS011;47592;45.904;8.978;2022-12-18T00:55:44;12.18;;;7.90;;
61685;SDS011;47592;45.904;8.978;2022-12-18T00:58:11;13.75;;;8.30;;
61685;SDS011;47592;45.904;8.978;2022-12-18T01:00:37;11.40;;;8.05;;
61685;SDS011;47592;45.904;8.978;2022-12-18T01:03:03;12.30;;;8.73;;
61685;SDS011;47592;45.904;8.978;2022-12-18T01:05:29;11.38;;;7.75;;
61685;SDS011;47592;45.904;8.978;2022-12-18T01:07:55;10.45;;;7.05;;
61685;SDS011;47592;45.904;8.978;2022-12-18T01:10:21;12.77;;;8.07;;
61685;SDS011;47592;45.904;8.978;2022-12-18T01:12:47;11.73;;;7.15;;
61685;SDS011;47592;45.904;8.978;2022-12-18T01:15:14;11.38;;;7.55;;
61685;SDS011;47592;45.904;8.978;2022-12-18T01:17:40;12.63;;;8.25;;
61685;SDS011;47592;45.904;8.978;2022-12-18T01:20:06;12.25;;;7.70;;
61685;SDS011;47592;45.904;8.978;2022-12-18T01:22:32;10.68;;;7.15;;
61685;SDS011;47592;45.904;8.978;2022-12-18T01:24:57;12.35;;;8.05;;
61685;SDS011;47592;45.904;8.978;2022-12-18T01:27:23;11.18;;;7.25;;
61685;SDS011;47592;45.904;8.978;2022-12-18T01:29:49;11.40;;;7.57;;
61685;SDS011;47592;45.904;8.978;2022-12-18T01:32:14;10.70;;;6.95;;
61685;SDS011;47592;45.904;8.978;2022-12-18T01:34:39;11.52;;;7.18;;
61685;SDS011;47592;45.904;8.978;2022-12-18T01:37:05;10.38;;;6.78;;
61685;SDS011;47592;45.904;8.978;2022-12-18T01:39:30;10.18;;;6.88;;
61685;SDS011;47592;45.904;8.978;2022-12-18T01:41:57;10.95;;;6.68;;
61685;SDS011;47592;45.904;8.978;2022-12-18T01:47:12;10.02;;;6.25;;
61685;SDS011;47592;45.904;8.978;2022-12-18T01:49:44;10.57;;;7.00;;
61685;SDS011;47592;45.904;8.978;2022-12-18T01:52:09;10.05;;;6.38;;
61685;SDS011;47592;45.904;8.978;2022-12-18T01:54:35;11.18;;;6.35;;
61685;SDS011;47592;45.904;8.978;2022-12-18T01:57:00;10.35;;;7.07;;
61685;SDS011;47592;45.904;8.978;2022-12-18T01:59:26;11.35;;;6.93;;
61685;SDS011;47592;45.904;8.978;2022-12-18T02:01:52;10.13;;;6.53;;
61685;SDS011;47592;45.904;8.978;2022-12-18T02:04:21;12.13;;;6.63;;
61685;SDS011;47592;45.904;8.978;2022-12-18T02:06:57;9.35;;;5.57;;
61685;SDS011;47592;45.904;8.978;2022-12-18T02:09:32;8.00;;;5.22;;
61685;SDS011;47592;45.904;8.978;2022-12-18T02:12:23;10.40;;;6.45;;
61685;SDS011;47592;45.904;8.978;2022-12-18T02:17:36;9.43;;;6.25;;
61685;SDS011;47592;45.904;8.978;2022-12-18T02:28:18;10.60;;;6.90;;
61685;SDS011;47592;45.904;8.978;2022-12-18T02:30:45;12.10;;;7.13;;
61685;SDS011;47592;45.904;8.978;2022-12-18T02:33:13;10.95;;;7.13;;
61685;SDS011;47592;45.904;8.978;2022-12-18T02:35:39;11.80;;;6.50;;
61685;SDS011;47592;45.904;8.978;2022-12-18T02:38:05;9.07;;;6.07;;
61685;SDS011;47592;45.904;8.978;2022-12-18T02:40:31;10.52;;;6.35;;
61685;SDS011;47592;45.904;8.978;2022-12-18T02:43:18;10.25;;;6.25;;
61685;SDS011;47592;45.904;8.978;2022-12-18T02:45:46;10.10;;;5.85;;
61685;SDS011;47592;45.904;8.978;2022-12-18T02:48:17;9.63;;;5.35;;
61685;SDS011;47592;45.904;8.978;2022-12-18T02:50:53;9.05;;;5.68;;
61685;SDS011;47592;45.904;8.978;2022-12-18T02:53:43;9.73;;;6.47;;
61685;SDS011;47592;45.904;8.978;2022-12-18T02:56:15;9.25;;;5.95;;
61685;SDS011;47592;45.904;8.978;2022-12-18T02:58:50;8.88;;;5.53;;
61685;SDS011;47592;45.904;8.978;2022-12-18T03:01:22;9.30;;;6.13;;
61685;SDS011;47592;45.904;8.978;2022-12-18T03:03:56;9.32;;;6.10;;
61685;SDS011;47592;45.904;8.978;2022-12-18T03:06:38;9.40;;;5.75;;
61685;SDS011;47592;45.904;8.978;2022-12-18T03:09:07;9.95;;;6.40;;
61685;SDS011;47592;45.904;8.978;2022-12-18T03:11:36;9.98;;;6.25;;
61685;SDS011;47592;45.904;8.978;2022-12-18T03:14:23;10.10;;;6.03;;
61685;SDS011;47592;45.904;8.978;2022-12-18T03:16:49;10.13;;;5.65;;
61685;SDS011;47592;45.904;8.978;2022-12-18T03:19:19;9.55;;;5.95;;
61685;SDS011;47592;45.904;8.978;2022-12-18T03:21:49;10.07;;;6.35;;
61685;SDS011;47592;45.904;8.978;2022-12-18T03:24:17;9.60;;;5.70;;
61685;SDS011;47592;45.904;8.978;2022-12-18T03:26:44;9.50;;;5.93;;
61685;SDS011;47592;45.904;8.978;2022-12-18T03:29:22;8.85;;;5.47;;
61685;SDS011;47592;45.904;8.978;2022-12-18T03:31:53;8.57;;;5.70;;
61685;SDS011;47592;45.904;8.978;2022-12-18T03:34:22;9.43;;;5.68;;
61685;SDS011;47592;45.904;8.978;2022-12-18T03:36:49;10.13;;;6.18;;
61685;SDS011;47592;45.904;8.978;2022-12-18T03:39:15;9.43;;;5.95;;
61685;SDS011;47592;45.904;8.978;2022-12-18T03:41:43;8.38;;;4.97;;
61685;SDS011;47592;45.904;8.978;2022-12-18T03:44:21;9.65;;;5.53;;
61685;SDS011;47592;45.904;8.978;2022-12-18T03:46:58;9.88;;;5.72;;
61685;SDS011;47592;45.904;8.978;2022-12-18T03:55:13;9.38;;;5.85;;
61685;SDS011;47592;45.904;8.978;2022-12-18T03:57:38;9.82;;;5.60;;
61685;SDS011;47592;45.904;8.978;2022-12-18T04:00:11;8.90;;;5.50;;
61685;SDS011;47592;45.904;8.978;2022-12-18T04:02:40;10.82;;;5.40;;
61685;SDS011;47592;45.904;8.978;2022-12-18T04:05:08;10.02;;;5.60;;
61685;SDS011;47592;45.904;8.978;2022-12-18T04:07:35;9.38;;;5.57;;
61685;SDS011;47592;45.904;8.978;2022-12-18T04:10:02;7.90;;;5.18;;
61685;SDS011;47592;45.904;8.978;2022-12-18T04:12:29;8.75;;;5.20;;
61685;SDS011;47592;45.904;8.978;2022-12-18T04:14:55;9.82;;;5.35;;
61685;SDS011;47592;45.904;8.978;2022-12-18T04:17:20;7.57;;;4.78;;
61685;SDS011;47592;45.904;8.978;2022-12-18T04:19:46;9.63;;;6.13;;
61685;SDS011;47592;45.904;8.978;2022-12-18T04:22:12;9.55;;;5.28;;
61685;SDS011;47592;45.904;8.978;2022-12-18T04:24:38;8.57;;;5.00;;
61685;SDS011;47592;45.904;8.978;2022-12-18T04:27:03;8.80;;;5.28;;
61685;SDS011;47592;45.904;8.978;2022-12-18T04:29:29;10.00;;;5.13;;
61685;SDS011;47592;45.904;8.978;2022-12-18T04:31:54;8.20;;;5.43;;
61685;SDS011;47592;45.904;8.978;2022-12-18T04:34:20;8.25;;;5.25;;
61685;SDS011;47592;45.904;8.978;2022-12-18T04:36:46;8.40;;;5.03;;
61685;SDS011;47592;45.904;8.978;2022-12-18T04:39:11;8.75;;;5.45;;
61685;SDS011;47592;45.904;8.978;2022-12-18T04:41:37;7.18;;;4.35;;
61685;SDS011;47592;45.904;8.978;2022-12-18T04:44:02;10.38;;;5.35;;
61685;SDS011;47592;45.904;8.978;2022-12-18T04:46:28;9.30;;;5.22;;
61685;SDS011;47592;45.904;8.978;2022-12-18T04:48:54;8.00;;;4.22;;
61685;SDS011;47592;45.904;8.978;2022-12-18T04:51:19;8.70;;;4.90;;
61685;SDS011;47592;45.904;8.978;2022-12-18T04:53:45;7.72;;;4.85;;
61685;SDS011;47592;45.904;8.978;2022-12-18T04:56:11;9.30;;;4.63;;
61685;SDS011;47592;45.904;8.978;2022-12-18T04:58:38;7.80;;;4.82;;
61685;SDS011;47592;45.904;8.978;2022-12-18T05:01:05;8.35;;;5.15;;
61685;SDS011;47592;45.904;8.978;2022-12-18T05:03:31;7.90;;;4.80;;
61685;SDS011;47592;45.904;8.978;2022-12-18T05:05:56;7.88;;;4.47;;
61685;SDS011;47592;45.904;8.978;2022-12-18T05:08:22;7.57;;;4.50;;
61685;SDS011;47592;45.904;8.978;2022-12-18T05:10:47;8.02;;;4.47;;
61685;SDS011;47592;45.904;8.978;2022-12-18T05:13:13;7.45;;;4.53;;
61685;SDS011;47592;45.904;8.978;2022-12-18T05:15:38;8.05;;;4.75;;
61685;SDS011;47592;45.904;8.978;2022-12-18T05:18:03;8.48;;;4.63;;
61685;SDS011;47592;45.904;8.978;2022-12-18T05:20:29;8.27;;;4.57;;
61685;SDS011;47592;45.904;8.978;2022-12-18T05:22:55;8.68;;;4.90;;
61685;SDS011;47592;45.904;8.978;2022-12-18T05:25:21;8.27;;;4.65;;
61685;SDS011;47592;45.904;8.978;2022-12-18T05:27:47;7.45;;;4.80;;
61685;SDS011;47592;45.904;8.978;2022-12-18T05:30:13;8.95;;;5.15;;
61685;SDS011;47592;45.904;8.978;2022-12-18T05:32:39;7.75;;;4.28;;
61685;SDS011;47592;45.904;8.978;2022-12-18T05:35:05;8.55;;;4.97;;
61685;SDS011;47592;45.904;8.978;2022-12-18T05:37:32;9.25;;;5.50;;
61685;SDS011;47592;45.904;8.978;2022-12-18T05:39:57;8.18;;;4.82;;
61685;SDS011;47592;45.904;8.978;2022-12-18T05:42:23;7.38;;;4.78;;
61685;SDS011;47592;45.904;8.978;2022-12-18T05:44:48;8.73;;;5.15;;
61685;SDS011;47592;45.904;8.978;2022-12-18T05:47:14;8.00;;;4.63;;
61685;SDS011;47592;45.904;8.978;2022-12-18T05:49:39;7.32;;;4.75;;
61685;SDS011;47592;45.904;8.978;2022-12-18T05:52:05;7.97;;;4.80;;
61685;SDS011;47592;45.904;8.978;2022-12-18T05:54:30;8.18;;;4.50;;
61685;SDS011;47592;45.904;8.978;2022-12-18T05:56:56;6.95;;;4.55;;
61685;SDS011;47592;45.904;8.978;2022-12-18T05:59:22;7.82;;;4.72;;
61685;SDS011;47592;45.904;8.978;2022-12-18T06:01:47;9.68;;;4.38;;
61685;SDS011;47592;45.904;8.978;2022-12-18T06:04:13;7.80;;;4.65;;
61685;SDS011;47592;45.904;8.978;2022-12-18T06:06:38;7.72;;;4.32;;
61685;SDS011;47592;45.904;8.978;2022-12-18T06:09:04;7.47;;;4.35;;
61685;SDS011;47592;45.904;8.978;2022-12-18T06:11:33;8.13;;;4.70;;
61685;SDS011;47592;45.904;8.978;2022-12-18T06:13:59;8.13;;;4.65;;
61685;SDS011;47592;45.904;8.978;2022-12-18T06:16:25;7.07;;;3.92;;
61685;SDS011;47592;45.904;8.978;2022-12-18T06:18:51;8.20;;;4.50;;
61685;SDS011;47592;45.904;8.978;2022-12-18T06:21:17;7.05;;;4.10;;
61685;SDS011;47592;45.904;8.978;2022-12-18T06:23:42;7.47;;;4.18;;
61685;SDS011;47592;45.904;8.978;2022-12-18T06:26:09;7.00;;;4.15;;
61685;SDS011;47592;45.904;8.978;2022-12-18T06:28:36;7.07;;;4.20;;
61685;SDS011;47592;45.904;8.978;2022-12-18T06:31:02;7.75;;;4.30;;
61685;SDS011;47592;45.904;8.978;2022-12-18T06:33:29;7.57;;;4.32;;
61685;SDS011;47592;45.904;8.978;2022-12-18T06:35:58;8.32;;;4.63;;
61685;SDS011;47592;45.904;8.978;2022-12-18T06:38:25;7.40;;;4.38;;
61685;SDS011;47592;45.904;8.978;2022-12-18T06:40:51;7.38;;;4.28;;
61685;SDS011;47592;45.904;8.978;2022-12-18T06:43:16;7.47;;;4.30;;
61685;SDS011;47592;45.904;8.978;2022-12-18T06:45:41;7.55;;;4.13;;
61685;SDS011;47592;45.904;8.978;2022-12-18T06:48:07;6.60;;;3.65;;
61685;SDS011;47592;45.904;8.978;2022-12-18T06:50:32;6.78;;;4.28;;
61685;SDS011;47592;45.904;8.978;2022-12-18T06:52:58;7.68;;;4.53;;
61685;SDS011;47592;45.904;8.978;2022-12-18T06:55:24;8.25;;;4.10;;
61685;SDS011;47592;45.904;8.978;2022-12-18T06:57:50;6.50;;;3.85;;
61685;SDS011;47592;45.904;8.978;2022-12-18T07:00:16;6.88;;;3.75;;
61685;SDS011;47592;45.904;8.978;2022-12-18T07:02:41;8.48;;;4.63;;
61685;SDS011;47592;45.904;8.978;2022-12-18T07:05:07;6.95;;;3.95;;
61685;SDS011;47592;45.904;8.978;2022-12-18T07:07:36;6.82;;;3.92;;
61685;SDS011;47592;45.904;8.978;2022-12-18T07:10:01;7.18;;;4.13;;
61685;SDS011;47592;45.904;8.978;2022-12-18T07:12:28;6.10;;;3.63;;
61685;SDS011;47592;45.904;8.978;2022-12-18T07:14:53;7.35;;;3.70;;
61685;SDS011;47592;45.904;8.978;2022-12-18T07:17:18;6.50;;;3.65;;
61685;SDS011;47592;45.904;8.978;2022-12-18T07:19:44;8.20;;;3.83;;
61685;SDS011;47592;45.904;8.978;2022-12-18T07:22:10;6.00;;;3.53;;
61685;SDS011;47592;45.904;8.978;2022-12-18T07:24:35;7.32;;;3.33;;
61685;SDS011;47592;45.904;8.978;2022-12-18T07:27:01;6.20;;;3.47;;
61685;SDS011;47592;45.904;8.978;2022-12-18T07:29:26;7.18;;;3.30;;
61685;SDS011;47592;45.904;8.978;2022-12-18T07:31:52;6.53;;;3.33;;
61685;SDS011;47592;45.904;8.978;2022-12-18T07:34:17;6.65;;;3.40;;
61685;SDS011;47592;45.904;8.978;2022-12-18T07:36:43;8.95;;;4.00;;
61685;SDS011;47592;45.904;8.978;2022-12-18T07:39:10;6.28;;;3.50;;
61685;SDS011;47592;45.904;8.978;2022-12-18T07:41:36;6.57;;;3.45;;
61685;SDS011;47592;45.904;8.978;2022-12-18T07:44:01;5.78;;;2.67;;
61685;SDS011;47592;45.904;8.978;2022-12-18T07:46:27;6.57;;;3.30;;
61685;SDS011;47592;45.904;8.978;2022-12-18T07:48:52;5.70;;;2.92;;
61685;SDS011;47592;45.904;8.978;2022-12-18T07:51:18;6.93;;;3.47;;
61685;SDS011;47592;45.904;8.978;2022-12-18T07:53:43;6.57;;;3.20;;
61685;SDS011;47592;45.904;8.978;2022-12-18T07:56:10;6.00;;;3.28;;
61685;SDS011;47592;45.904;8.978;2022-12-18T07:58:36;8.00;;;3.58;;
61685;SDS011;47592;45.904;8.978;2022-12-18T08:01:03;6.85;;;3.63;;
61685;SDS011;47592;45.904;8.978;2022-12-18T08:03:33;6.95;;;4.15;;
61685;SDS011;47592;45.904;8.978;2022-12-18T08:06:03;7.25;;;3.53;;
61685;SDS011;47592;45.904;8.978;2022-12-18T08:08:30;6.95;;;3.70;;
61685;SDS011;47592;45.904;8.978;2022-12-18T08:10:56;7.00;;;3.55;;
61685;SDS011;47592;45.904;8.978;2022-12-18T08:13:22;7.95;;;3.55;;
61685;SDS011;47592;45.904;8.978;2022-12-18T08:16:04;6.78;;;3.45;;
61685;SDS011;47592;45.904;8.978;2022-12-18T08:18:35;7.20;;;3.15;;
61685;SDS011;47592;45.904;8.978;2022-12-18T08:21:12;6.82;;;3.40;;
61685;SDS011;47592;45.904;8.978;2022-12-18T08:23:49;6.03;;;3.30;;
61685;SDS011;47592;45.904;8.978;2022-12-18T08:26:15;8.15;;;3.50;;
61685;SDS011;47592;45.904;8.978;2022-12-18T08:28:41;5.93;;;3.35;;
61685;SDS011;47592;45.904;8.978;2022-12-18T08:31:07;7.68;;;3.30;;
61685;SDS011;47592;45.904;8.978;2022-12-18T08:33:34;6.32;;;3.65;;
61685;SDS011;47592;45.904;8.978;2022-12-18T08:36:00;6.97;;;3.00;;
61685;SDS011;47592;45.904;8.978;2022-12-18T08:38:26;6.57;;;3.25;;
61685;SDS011;47592;45.904;8.978;2022-12-18T08:41:02;5.80;;;2.83;;
61685;SDS011;47592;45.904;8.978;2022-12-18T08:43:29;5.97;;;2.97;;
61685;SDS011;47592;45.904;8.978;2022-12-18T08:46:16;5.60;;;2.80;;
61685;SDS011;47592;45.904;8.978;2022-12-18T08:48:45;7.40;;;3.40;;
61685;SDS011;47592;45.904;8.978;2022-12-18T08:51:11;5.80;;;3.13;;
61685;SDS011;47592;45.904;8.978;2022-12-18T08:53:37;6.68;;;3.17;;
61685;SDS011;47592;45.904;8.978;2022-12-18T08:56:03;5.88;;;3.00;;
61685;SDS011;47592;45.904;8.978;2022-12-18T08:58:29;7.05;;;3.42;;
61685;SDS011;47592;45.904;8.978;2022-12-18T09:00:59;6.88;;;3.28;;
61685;SDS011;47592;45.904;8.978;2022-12-18T09:03:25;6.28;;;3.33;;
61685;SDS011;47592;45.904;8.978;2022-12-18T09:05:51;6.32;;;3.30;;
61685;SDS011;47592;45.904;8.978;2022-12-18T09:08:16;7.50;;;3.58;;
61685;SDS011;47592;45.904;8.978;2022-12-18T09:10:45;6.55;;;3.42;;
61685;SDS011;47592;45.904;8.978;2022-12-18T09:13:12;6.57;;;3.50;;
61685;SDS011;47592;45.904;8.978;2022-12-18T09:15:47;7.95;;;4.10;;
61685;SDS011;47592;45.904;8.978;2022-12-18T09:18:14;7.10;;;3.55;;
61685;SDS011;47592;45.904;8.978;2022-12-18T09:20:41;7.55;;;3.35;;
61685;SDS011;47592;45.904;8.978;2022-12-18T09:23:07;6.40;;;3.60;;
61685;SDS011;47592;45.904;8.978;2022-12-18T09:25:33;5.85;;;3.20;;
61685;SDS011;47592;45.904;8.978;2022-12-18T09:28:05;6.28;;;3.63;;
61685;SDS011;47592;45.904;8.978;2022-12-18T09:30:36;6.63;;;3.70;;
61685;SDS011;47592;45.904;8.978;2022-12-18T09:33:03;6.57;;;3.50;;
61685;SDS011;47592;45.904;8.978;2022-12-18T09:35:28;6.05;;;2.97;;
61685;SDS011;47592;45.904;8.978;2022-12-18T09:37:54;6.22;;;3.05;;
61685;SDS011;47592;45.904;8.978;2022-12-18T09:40:21;6.15;;;3.05;;
61685;SDS011;47592;45.904;8.978;2022-12-18T09:42:50;5.85;;;2.90;;
61685;SDS011;47592;45.904;8.978;2022-12-18T09:45:19;5.88;;;2.70;;
61685;SDS011;47592;45.904;8.978;2022-12-18T09:47:45;6.35;;;3.38;;
61685;SDS011;47592;45.904;8.978;2022-12-18T09:50:23;6.80;;;3.92;;
61685;SDS011;47592;45.904;8.978;2022-12-18T09:52:50;6.20;;;3.00;;
61685;SDS011;47592;45.904;8.978;2022-12-18T09:55:32;6.83;;;3.63;;
61685;SDS011;47592;45.904;8.978;2022-12-18T09:58:02;6.45;;;3.10;;
61685;SDS011;47592;45.904;8.978;2022-12-18T10:00:35;6.43;;;3.25;;
61685;SDS011;47592;45.904;8.978;2022-12-18T10:03:08;7.53;;;3.53;;
61685;SDS011;47592;45.904;8.978;2022-12-18T10:08:29;6.50;;;2.95;;
61685;SDS011;47592;45.904;8.978;2022-12-18T10:14:02;6.72;;;3.55;;
61685;SDS011;47592;45.904;8.978;2022-12-18T10:16:43;7.15;;;3.35;;
61685;SDS011;47592;45.904;8.978;2022-12-18T10:21:57;7.10;;;3.30;;
61685;SDS011;47592;45.904;8.978;2022-12-18T10:24:35;6.95;;;3.55;;
61685;SDS011;47592;45.904;8.978;2022-12-18T10:27:14;6.53;;;3.40;;
61685;SDS011;47592;45.904;8.978;2022-12-18T10:29:41;6.18;;;3.28;;
61685;SDS011;47592;45.904;8.978;2022-12-18T10:32:09;6.10;;;3.10;;
61685;SDS011;47592;45.904;8.978;2022-12-18T10:34:45;7.28;;;3.15;;
61685;SDS011;47592;45.904;8.978;2022-12-18T10:37:14;6.63;;;3.55;;
61685;SDS011;47592;45.904;8.978;2022-12-18T10:39:41;5.70;;;3.08;;
61685;SDS011;47592;45.904;8.978;2022-12-18T10:42:11;5.82;;;2.92;;
61685;SDS011;47592;45.904;8.978;2022-12-18T10:44:42;7.45;;;3.28;;
61685;SDS011;47592;45.904;8.978;2022-12-18T10:47:11;5.90;;;3.20;;
61685;SDS011;47592;45.904;8.978;2022-12-18T10:49:42;7.15;;;3.35;;
61685;SDS011;47592;45.904;8.978;2022-12-18T10:52:18;6.80;;;3.20;;
61685;SDS011;47592;45.904;8.978;2022-12-18T10:54:51;8.27;;;3.25;;
61685;SDS011;47592;45.904;8.978;2022-12-18T11:00:26;6.22;;;3.28;;
61685;SDS011;47592;45.904;8.978;2022-12-18T11:02:51;6.47;;;3.13;;
61685;SDS011;47592;45.904;8.978;2022-12-18T11:05:27;6.03;;;3.38;;
61685;SDS011;47592;45.904;8.978;2022-12-18T11:07:57;5.50;;;2.90;;
61685;SDS011;47592;45.904;8.978;2022-12-18T11:10:31;6.07;;;3.15;;
61685;SDS011;47592;45.904;8.978;2022-12-18T11:13:12;6.60;;;3.20;;
61685;SDS011;47592;45.904;8.978;2022-12-18T11:15:42;5.75;;;2.72;;
61685;SDS011;47592;45.904;8.978;2022-12-18T11:20:55;6.30;;;3.13;;
61685;SDS011;47592;45.904;8.978;2022-12-18T11:23:22;5.57;;;2.90;;
61685;SDS011;47592;45.904;8.978;2022-12-18T11:25:59;6.60;;;3.30;;
61685;SDS011;47592;45.904;8.978;2022-12-18T11:31:09;6.30;;;3.40;;
61685;SDS011;47592;45.904;8.978;2022-12-18T11:33:40;6.95;;;3.78;;
61685;SDS011;47592;45.904;8.978;2022-12-18T11:36:07;6.43;;;3.85;;
61685;SDS011;47592;45.904;8.978;2022-12-18T11:38:41;5.72;;;3.38;;
61685;SDS011;47592;45.904;8.978;2022-12-18T11:41:15;8.15;;;3.78;;
61685;SDS011;47592;45.904;8.978;2022-12-18T11:46:26;7.47;;;3.53;;
61685;SDS011;47592;45.904;8.978;2022-12-18T11:49:07;7.45;;;3.72;;
61685;SDS011;47592;45.904;8.978;2022-12-18T11:54:37;7.95;;;3.92;;
61685;SDS011;47592;45.904;8.978;2022-12-18T12:00:11;9.70;;;4.30;;
61685;SDS011;47592;45.904;8.978;2022-12-18T12:08:16;10.40;;;4.90;;
61685;SDS011;47592;45.904;8.978;2022-12-18T12:16:05;7.43;;;4.65;;
61685;SDS011;47592;45.904;8.978;2022-12-18T12:18:57;9.20;;;4.63;;
61685;SDS011;47592;45.904;8.978;2022-12-18T12:24:11;8.48;;;5.07;;
61685;SDS011;47592;45.904;8.978;2022-12-18T12:38:12;9.90;;;6.10;;
61685;SDS011;47592;45.904;8.978;2022-12-18T12:40:49;12.07;;;7.15;;
61685;SDS011;47592;45.904;8.978;2022-12-18T12:45:59;12.93;;;8.43;;
61685;SDS011;47592;45.904;8.978;2022-12-18T12:51:28;14.38;;;8.80;;
61685;SDS011;47592;45.904;8.978;2022-12-18T12:53:56;12.88;;;8.45;;
61685;SDS011;47592;45.904;8.978;2022-12-18T12:56:24;14.23;;;8.70;;
61685;SDS011;47592;45.904;8.978;2022-12-18T12:59:12;13.80;;;8.73;;
61685;SDS011;47592;45.904;8.978;2022-12-18T13:01:55;14.80;;;9.23;;
61685;SDS011;47592;45.904;8.978;2022-12-18T13:12:56;16.70;;;10.35;;
61685;SDS011;47592;45.904;8.978;2022-12-18T13:18:24;14.73;;;9.55;;
61685;SDS011;47592;45.904;8.978;2022-12-18T13:28:21;15.27;;;10.25;;
61685;SDS011;47592;45.904;8.978;2022-12-18T13:31:06;16.45;;;9.73;;
61685;SDS011;47592;45.904;8.978;2022-12-18T13:33:36;14.98;;;9.77;;
61685;SDS011;47592;45.904;8.978;2022-12-18T13:38:38;15.88;;;9.60;;
61685;SDS011;47592;45.904;8.978;2022-12-18T13:46:21;15.57;;;9.63;;
61685;SDS011;47592;45.904;8.978;2022-12-18T13:49:15;14.60;;;9.18;;
61685;SDS011;47592;45.904;8.978;2022-12-18T13:51:39;16.40;;;9.63;;
61685;SDS011;47592;45.904;8.978;2022-12-18T13:56:55;14.80;;;9.43;;
61685;SDS011;47592;45.904;8.978;2022-12-18T13:59:22;13.95;;;9.15;;
61685;SDS011;47592;45.904;8.978;2022-12-18T14:01:58;15.80;;;10.35;;
61685;SDS011;47592;45.904;8.978;2022-12-18T14:04:29;15.27;;;10.32;;
61685;SDS011;47592;45.904;8.978;2022-12-18T14:06:57;15.60;;;10.30;;
61685;SDS011;47592;45.904;8.978;2022-12-18T14:09:29;15.27;;;10.70;;
61685;SDS011;47592;45.904;8.978;2022-12-18T14:11:56;13.50;;;9.43;;
61685;SDS011;47592;45.904;8.978;2022-12-18T14:14:46;16.75;;;9.57;;
61685;SDS011;47592;45.904;8.978;2022-12-18T14:17:14;16.70;;;10.07;;
61685;SDS011;47592;45.904;8.978;2022-12-18T14:19:44;15.23;;;9.95;;
61685;SDS011;47592;45.904;8.978;2022-12-18T14:22:18;15.05;;;9.65;;
61685;SDS011;47592;45.904;8.978;2022-12-18T14:24:46;14.65;;;9.40;;
61685;SDS011;47592;45.904;8.978;2022-12-18T14:27:23;18.48;;;10.23;;
61685;SDS011;47592;45.904;8.978;2022-12-18T14:29:49;16.02;;;10.35;;
61685;SDS011;47592;45.904;8.978;2022-12-18T14:32:19;13.48;;;9.60;;
61685;SDS011;47592;45.904;8.978;2022-12-18T14:34:52;14.93;;;9.80;;
61685;SDS011;47592;45.904;8.978;2022-12-18T14:37:25;15.38;;;10.15;;
61685;SDS011;47592;45.904;8.978;2022-12-18T14:40:02;15.30;;;10.32;;
61685;SDS011;47592;45.904;8.978;2022-12-18T14:42:29;19.10;;;12.80;;
61685;SDS011;47592;45.904;8.978;2022-12-18T14:47:59;19.48;;;12.48;;
61685;SDS011;47592;45.904;8.978;2022-12-18T14:50:25;20.77;;;13.25;;
61685;SDS011;47592;45.904;8.978;2022-12-18T14:52:51;20.70;;;13.65;;
61685;SDS011;47592;45.904;8.978;2022-12-18T14:55:17;20.80;;;13.50;;
61685;SDS011;47592;45.904;8.978;2022-12-18T14:57:44;25.98;;;14.73;;
61685;SDS011;47592;45.904;8.978;2022-12-18T15:00:17;25.75;;;14.75;;
61685;SDS011;47592;45.904;8.978;2022-12-18T15:02:50;22.65;;;14.60;;
61685;SDS011;47592;45.904;8.978;2022-12-18T15:05:18;20.10;;;13.82;;
61685;SDS011;47592;45.904;8.978;2022-12-18T15:07:52;20.15;;;12.80;;
61685;SDS011;47592;45.904;8.978;2022-12-18T15:10:23;17.67;;;12.35;;
61685;SDS011;47592;45.904;8.978;2022-12-18T15:20:39;15.27;;;10.23;;
61685;SDS011;47592;45.904;8.978;2022-12-18T15:23:20;15.68;;;10.90;;
61685;SDS011;47592;45.904;8.978;2022-12-18T15:26:11;15.63;;;10.45;;
61685;SDS011;47592;45.904;8.978;2022-12-18T15:28:38;14.63;;;10.38;;
61685;SDS011;47592;45.904;8.978;2022-12-18T15:33:40;16.48;;;11.07;;
61685;SDS011;47592;45.904;8.978;2022-12-18T15:36:10;16.00;;;10.38;;
61685;SDS011;47592;45.904;8.978;2022-12-18T15:38:39;17.27;;;11.20;;
61685;SDS011;47592;45.904;8.978;2022-12-18T15:41:05;16.65;;;11.38;;
61685;SDS011;47592;45.904;8.978;2022-12-18T15:43:31;17.10;;;11.43;;
61685;SDS011;47592;45.904;8.978;2022-12-18T15:46:19;19.08;;;11.80;;
61685;SDS011;47592;45.904;8.978;2022-12-18T15:48:47;18.23;;;11.75;;
61685;SDS011;47592;45.904;8.978;2022-12-18T15:51:21;18.10;;;12.48;;
61685;SDS011;47592;45.904;8.978;2022-12-18T15:53:49;18.92;;;12.43;;
61685;SDS011;47592;45.904;8.978;2022-12-18T15:56:16;18.23;;;11.85;;
61685;SDS011;47592;45.904;8.978;2022-12-18T15:59:01;20.52;;;12.52;;
61685;SDS011;47592;45.904;8.978;2022-12-18T16:01:28;21.80;;;13.95;;
61685;SDS011;47592;45.904;8.978;2022-12-18T16:03:55;18.15;;;13.15;;
61685;SDS011;47592;45.904;8.978;2022-12-18T16:06:21;18.63;;;12.52;;
61685;SDS011;47592;45.904;8.978;2022-12-18T16:08:47;19.00;;;14.10;;
61685;SDS011;47592;45.904;8.978;2022-12-18T16:11:26;25.60;;;17.92;;
61685;SDS011;47592;45.904;8.978;2022-12-18T16:14:14;30.20;;;19.58;;
61685;SDS011;47592;45.904;8.978;2022-12-18T16:16:53;27.45;;;18.15;;
61685;SDS011;47592;45.904;8.978;2022-12-18T16:19:20;26.13;;;17.33;;
61685;SDS011;47592;45.904;8.978;2022-12-18T16:21:46;23.70;;;15.88;;
61685;SDS011;47592;45.904;8.978;2022-12-18T16:24:16;25.27;;;17.45;;
61685;SDS011;47592;45.904;8.978;2022-12-18T16:26:43;27.33;;;17.73;;
61685;SDS011;47592;45.904;8.978;2022-12-18T16:29:09;26.67;;;17.92;;
61685;SDS011;47592;45.904;8.978;2022-12-18T16:31:35;25.63;;;18.60;;
61685;SDS011;47592;45.904;8.978;2022-12-18T16:36:55;27.08;;;18.13;;
61685;SDS011;47592;45.904;8.978;2022-12-18T16:39:23;25.58;;;18.83;;
61685;SDS011;47592;45.904;8.978;2022-12-18T16:41:49;26.27;;;18.08;;
61685;SDS011;47592;45.904;8.978;2022-12-18T16:44:15;24.23;;;17.13;;
61685;SDS011;47592;45.904;8.978;2022-12-18T16:46:40;27.25;;;17.13;;
61685;SDS011;47592;45.904;8.978;2022-12-18T16:49:13;25.80;;;16.42;;
61685;SDS011;47592;45.904;8.978;2022-12-18T16:51:39;25.23;;;16.52;;
61685;SDS011;47592;45.904;8.978;2022-12-18T16:54:05;24.02;;;15.48;;